Terminal Aerodrome Forecast
Issued by NWS Charleston, WV

Current Version | Previous Version | Graphics & Text | Print | Product List | Glossary On
Versions: 1 2 3 4 5 6 7 8 9 10 11 12 13 14 15 16 17 18 19 20 21 22 23 24 25
000
FTUS41 KRLX 300200 AAA
TAFEKN
TAF AMD
KEKN 300234Z 3003/3024 27007KT P6SM BKN050
     FM300700 30004KT 5SM BR BKN035
      TEMPO 3008/3011 2SM BR SCT001 SCT035
     FM301300 VRB03KT P6SM BKN035=

USA.gov is the U.S. government's official web portal to all federal, state and local government web resources and services.